sensor_id;sensor_type;location;lat;lon;timestamp;pressure;altitude;pressure_sealevel;temperature;humidity
47054;BME280;32811;52.382;5.270;2023-01-29T00:01:56;103039.91;;;2.69;100.00
47054;BME280;32811;52.382;5.270;2023-01-29T00:04:23;103029.81;;;2.71;100.00
47054;BME280;32811;52.382;5.270;2023-01-29T00:06:50;103033.03;;;2.68;100.00
47054;BME280;32811;52.382;5.270;2023-01-29T00:09:18;103028.81;;;2.69;100.00
47054;BME280;32811;52.382;5.270;2023-01-29T00:11:44;103035.81;;;2.72;100.00
47054;BME280;32811;52.382;5.270;2023-01-29T00:14:11;103041.78;;;2.72;100.00
47054;BME280;32811;52.382;5.270;2023-01-29T00:16:38;103034.03;;;2.70;100.00
47054;BME280;32811;52.382;5.270;2023-01-29T00:19:05;103026.41;;;2.70;100.00
47054;BME280;32811;52.382;5.270;2023-01-29T00:21:32;103030.59;;;2.70;100.00
47054;BME280;32811;52.382;5.270;2023-01-29T00:23:59;103036.59;;;2.70;100.00
47054;BME280;32811;52.382;5.270;2023-01-29T00:26:26;103022.72;;;2.67;100.00
47054;BME280;32811;52.382;5.270;2023-01-29T00:28:53;103023.06;;;2.72;100.00
47054;BME280;32811;52.382;5.270;2023-01-29T00:31:22;103025.72;;;2.73;100.00
47054;BME280;32811;52.382;5.270;2023-01-29T00:33:50;103016.28;;;2.72;100.00
47054;BME280;32811;52.382;5.270;2023-01-29T00:36:18;103015.53;;;2.73;100.00
47054;BME280;32811;52.382;5.270;2023-01-29T00:38:46;103018.94;;;2.74;100.00
47054;BME280;32811;52.382;5.270;2023-01-29T00:41:20;103018.94;;;2.74;100.00
47054;BME280;32811;52.382;5.270;2023-01-29T00:44:06;103012.72;;;2.70;100.00
47054;BME280;32811;52.382;5.270;2023-01-29T00:46:51;103002.66;;;2.72;100.00
47054;BME280;32811;52.382;5.270;2023-01-29T00:49:18;103006.31;;;2.75;100.00
47054;BME280;32811;52.382;5.270;2023-01-29T00:51:45;103012.19;;;2.74;100.00
47054;BME280;32811;52.382;5.270;2023-01-29T00:54:31;102994.25;;;2.73;100.00
47054;BME280;32811;52.382;5.270;2023-01-29T00:56:58;102990.03;;;2.73;100.00
47054;BME280;32811;52.382;5.270;2023-01-29T00:59:25;102998.00;;;2.78;100.00
47054;BME280;32811;52.382;5.270;2023-01-29T01:01:52;102996.22;;;2.77;100.00
47054;BME280;32811;52.382;5.270;2023-01-29T01:04:37;102992.78;;;2.76;100.00
47054;BME280;32811;52.382;5.270;2023-01-29T01:07:05;102987.59;;;2.75;100.00
47054;BME280;32811;52.382;5.270;2023-01-29T01:09:34;102990.16;;;2.75;100.00
47054;BME280;32811;52.382;5.270;2023-01-29T01:12:20;102997.78;;;2.75;100.00
47054;BME280;32811;52.382;5.270;2023-01-29T01:14:47;103001.22;;;2.75;100.00
47054;BME280;32811;52.382;5.270;2023-01-29T01:17:14;103009.75;;;2.76;100.00
47054;BME280;32811;52.382;5.270;2023-01-29T01:19:41;103018.41;;;2.78;100.00
47054;BME280;32811;52.382;5.270;2023-01-29T01:22:07;103006.97;;;2.84;100.00
47054;BME280;32811;52.382;5.270;2023-01-29T01:24:36;103010.94;;;2.81;100.00
47054;BME280;32811;52.382;5.270;2023-01-29T01:27:02;103004.97;;;2.80;100.00
47054;BME280;32811;52.382;5.270;2023-01-29T01:29:30;103003.09;;;2.78;100.00
47054;BME280;32811;52.382;5.270;2023-01-29T01:31:57;103002.41;;;2.80;100.00
47054;BME280;32811;52.382;5.270;2023-01-29T01:34:24;103003.22;;;2.79;100.00
47054;BME280;32811;52.382;5.270;2023-01-29T01:36:53;103008.31;;;2.79;100.00
47054;BME280;32811;52.382;5.270;2023-01-29T01:39:22;103005.66;;;2.78;100.00
47054;BME280;32811;52.382;5.270;2023-01-29T01:41:48;102999.53;;;2.76;100.00
47054;BME280;32811;52.382;5.270;2023-01-29T01:50:00;102997.66;;;2.73;100.00
47054;BME280;32811;52.382;5.270;2023-01-29T01:52:30;103000.22;;;2.73;100.00
47054;BME280;32811;52.382;5.270;2023-01-29T01:54:58;102996.78;;;2.73;100.00
47054;BME280;32811;52.382;5.270;2023-01-29T01:57:26;103003.78;;;2.75;100.00
47054;BME280;32811;52.382;5.270;2023-01-29T02:00:04;103008.75;;;2.74;100.00
47054;BME280;32811;52.382;5.270;2023-01-29T02:02:38;103006.53;;;2.78;100.00
47054;BME280;32811;52.382;5.270;2023-01-29T02:05:25;103004.66;;;2.76;100.00
47054;BME280;32811;52.382;5.270;2023-01-29T02:08:11;103010.53;;;2.75;100.00
47054;BME280;32811;52.382;5.270;2023-01-29T02:10:59;103001.22;;;2.75;100.00
47054;BME280;32811;52.382;5.270;2023-01-29T02:13:26;102998.66;;;2.75;100.00
47054;BME280;32811;52.382;5.270;2023-01-29T02:15:53;103001.97;;;2.74;100.00
47054;BME280;32811;52.382;5.270;2023-01-29T02:18:20;103011.84;;;2.81;100.00
47054;BME280;32811;52.382;5.270;2023-01-29T02:21:24;103010.53;;;2.75;100.00
47054;BME280;32811;52.382;5.270;2023-01-29T02:26:49;103016.84;;;2.80;100.00
47054;BME280;32811;52.382;5.270;2023-01-29T02:29:28;103025.38;;;2.80;100.00
47054;BME280;32811;52.382;5.270;2023-01-29T02:34:47;103025.56;;;2.83;100.00
47054;BME280;32811;52.382;5.270;2023-01-29T02:37:40;103020.59;;;2.85;100.00
47054;BME280;32811;52.382;5.270;2023-01-29T02:40:18;103017.84;;;2.82;100.00
47054;BME280;32811;52.382;5.270;2023-01-29T02:43:08;103018.72;;;2.82;100.00
47054;BME280;32811;52.382;5.270;2023-01-29T02:45:45;103023.16;;;2.85;100.00
47054;BME280;32811;52.382;5.270;2023-01-29T02:48:19;103023.94;;;2.84;100.00
47054;BME280;32811;52.382;5.270;2023-01-29T02:51:05;102978.19;;;2.62;100.00
47054;BME280;32811;52.382;5.270;2023-01-29T02:54:04;102981.16;;;2.68;100.00
47054;BME280;32811;52.382;5.270;2023-01-29T02:56:51;102953.03;;;2.55;100.00
47054;BME280;32811;52.382;5.270;2023-01-29T02:59:41;102971.84;;;2.68;100.00
47054;BME280;32811;52.382;5.270;2023-01-29T03:05:24;102972.84;;;2.70;100.00
47054;BME280;32811;52.382;5.270;2023-01-29T03:08:03;102988.78;;;2.80;100.00
47054;BME280;32811;52.382;5.270;2023-01-29T03:11:18;102951.56;;;2.58;100.00
47054;BME280;32811;52.382;5.270;2023-01-29T03:14:04;102987.31;;;2.83;100.00
47054;BME280;32811;52.382;5.270;2023-01-29T03:16:39;102976.72;;;2.77;100.00
47054;BME280;32811;52.382;5.270;2023-01-29T03:19:25;102981.22;;;2.81;100.00
47054;BME280;32811;52.382;5.270;2023-01-29T03:22:09;102914.44;;;2.50;100.00
47054;BME280;32811;52.382;5.270;2023-01-29T03:24:45;102917.66;;;2.47;100.00
47054;BME280;32811;52.382;5.270;2023-01-29T03:27:55;102922.31;;;2.53;100.00
47054;BME280;32811;52.382;5.270;2023-01-29T03:30:48;102935.16;;;2.66;100.00
47054;BME280;32811;52.382;5.270;2023-01-29T03:34:00;102901.69;;;2.50;100.00
47054;BME280;32811;52.382;5.270;2023-01-29T03:37:05;102930.19;;;2.68;100.00
47054;BME280;32811;52.382;5.270;2023-01-29T03:39:39;102952.28;;;2.81;100.00
47054;BME280;32811;52.382;5.270;2023-01-29T03:45:56;102899.25;;;2.52;100.00
47054;BME280;32811;52.382;5.270;2023-01-29T03:48:56;102935.31;;;2.81;100.00
47054;BME280;32811;52.382;5.270;2023-01-29T03:57:39;102935.13;;;2.78;100.00
47054;BME280;32811;52.382;5.270;2023-01-29T04:03:33;102939.22;;;2.76;100.00
47054;BME280;32811;52.382;5.270;2023-01-29T04:06:24;102880.91;;;2.44;100.00
47054;BME280;32811;52.382;5.270;2023-01-29T04:09:18;102933.03;;;2.73;100.00
47054;BME280;32811;52.382;5.270;2023-01-29T04:11:55;102877.34;;;2.42;100.00
47054;BME280;32811;52.382;5.270;2023-01-29T04:14:37;102883.44;;;2.44;100.00
47054;BME280;32811;52.382;5.270;2023-01-29T04:17:42;102907.66;;;2.62;100.00
47054;BME280;32811;52.382;5.270;2023-01-29T04:20:30;102900.69;;;2.60;100.00
47054;BME280;32811;52.382;5.270;2023-01-29T04:23:16;102900.81;;;2.61;100.00
47054;BME280;32811;52.382;5.270;2023-01-29T04:41:23;102909.41;;;2.75;100.00
47054;BME280;32811;52.382;5.270;2023-01-29T04:44:19;102896.34;;;2.70;100.00
47054;BME280;32811;52.382;5.270;2023-01-29T04:49:34;102888.78;;;2.72;100.00
47054;BME280;32811;52.382;5.270;2023-01-29T04:55:16;102881.06;;;2.70;100.00
47054;BME280;32811;52.382;5.270;2023-01-29T04:58:20;102881.81;;;2.69;100.00
47054;BME280;32811;52.382;5.270;2023-01-29T05:00:52;102877.41;;;2.67;100.00
47054;BME280;32811;52.382;5.270;2023-01-29T05:03:23;102885.34;;;2.72;100.00
47054;BME280;32811;52.382;5.270;2023-01-29T05:05:53;102884.47;;;2.71;100.00
47054;BME280;32811;52.382;5.270;2023-01-29T05:08:23;102890.56;;;2.73;100.00
47054;BME280;32811;52.382;5.270;2023-01-29T05:10:52;102896.56;;;2.74;100.00
47054;BME280;32811;52.382;5.270;2023-01-29T05:13:22;102889.47;;;2.69;100.00
47054;BME280;32811;52.382;5.270;2023-01-29T05:18:35;102898.44;;;2.76;100.00
47054;BME280;32811;52.382;5.270;2023-01-29T05:21:16;102861.47;;;2.58;100.00
47054;BME280;32811;52.382;5.270;2023-01-29T05:23:58;102842.19;;;2.49;100.00
47054;BME280;32811;52.382;5.270;2023-01-29T05:26:37;102888.22;;;2.76;100.00
47054;BME280;32811;52.382;5.270;2023-01-29T05:29:22;102894.13;;;2.75;100.00
47054;BME280;32811;52.382;5.270;2023-01-29T05:31:52;102864.91;;;2.58;100.00
47054;BME280;32811;52.382;5.270;2023-01-29T05:34:31;102846.97;;;2.45;100.00
47054;BME280;32811;52.382;5.270;2023-01-29T05:37:33;102877.06;;;2.62;100.00
47054;BME280;32811;52.382;5.270;2023-01-29T05:40:02;102895.13;;;2.77;100.00
47054;BME280;32811;52.382;5.270;2023-01-29T05:42:39;102858.03;;;2.57;100.00
47054;BME280;32811;52.382;5.270;2023-01-29T05:45:10;102863.97;;;2.69;100.00
47054;BME280;32811;52.382;5.270;2023-01-29T05:47:43;102830.13;;;2.47;100.00
47054;BME280;32811;52.382;5.270;2023-01-29T05:50:23;102859.53;;;2.67;100.00
47054;BME280;32811;52.382;5.270;2023-01-29T05:53:05;102850.47;;;2.70;100.00
47054;BME280;32811;52.382;5.270;2023-01-29T05:55:48;102850.09;;;2.78;100.00
47054;BME280;32811;52.382;5.270;2023-01-29T05:58:34;102801.41;;;2.49;100.00
47054;BME280;32811;52.382;5.270;2023-01-29T06:01:14;102847.53;;;2.78;100.00
47054;BME280;32811;52.382;5.270;2023-01-29T06:03:50;102794.56;;;2.48;100.00
47054;BME280;32811;52.382;5.270;2023-01-29T06:06:23;102803.81;;;2.60;100.00
47054;BME280;32811;52.382;5.270;2023-01-29T06:09:03;102840.66;;;2.77;100.00
47054;BME280;32811;52.382;5.270;2023-01-29T06:11:33;102796.75;;;2.56;100.00
47054;BME280;32811;52.382;5.270;2023-01-29T06:14:26;102793.75;;;2.49;100.00
47054;BME280;32811;52.382;5.270;2023-01-29T06:17:00;102822.28;;;2.69;100.00
47054;BME280;32811;52.382;5.270;2023-01-29T06:19:42;102782.50;;;2.46;100.00
47054;BME280;32811;52.382;5.270;2023-01-29T06:22:11;102832.13;;;2.76;100.00
47054;BME280;32811;52.382;5.270;2023-01-29T06:24:54;102805.69;;;2.62;100.00
47054;BME280;32811;52.382;5.270;2023-01-29T06:27:24;102808.44;;;2.65;100.00
47054;BME280;32811;52.382;5.270;2023-01-29T06:30:09;102788.34;;;2.45;100.00
47054;BME280;32811;52.382;5.270;2023-01-29T06:32:42;102838.91;;;2.76;100.00
47054;BME280;32811;52.382;5.270;2023-01-29T06:35:36;102830.47;;;2.77;100.00
47054;BME280;32811;52.382;5.270;2023-01-29T06:38:20;102795.81;;;2.67;100.00
47054;BME280;32811;52.382;5.270;2023-01-29T06:40:53;102786.22;;;2.51;100.00
47054;BME280;32811;52.382;5.270;2023-01-29T06:43:23;102818.06;;;2.69;100.00
47054;BME280;32811;52.382;5.270;2023-01-29T06:45:57;102780.16;;;2.49;100.00
47054;BME280;32811;52.382;5.270;2023-01-29T06:48:27;102829.69;;;2.78;100.00
47054;BME280;32811;52.382;5.270;2023-01-29T06:51:02;102770.06;;;2.51;100.00
47054;BME280;32811;52.382;5.270;2023-01-29T06:53:32;102770.94;;;2.51;100.00
47054;BME280;32811;52.382;5.270;2023-01-29T06:56:09;102767.50;;;2.51;100.00
47054;BME280;32811;52.382;5.270;2023-01-29T06:58:44;102763.75;;;2.45;100.00
47054;BME280;32811;52.382;5.270;2023-01-29T07:01:17;102808.31;;;2.76;100.00
47054;BME280;32811;52.382;5.270;2023-01-29T07:04:02;102802.69;;;2.68;100.00
47054;BME280;32811;52.382;5.270;2023-01-29T07:06:44;102798.25;;;2.65;100.00
47054;BME280;32811;52.382;5.270;2023-01-29T07:09:12;102767.97;;;2.45;100.00
47054;BME280;32811;52.382;5.270;2023-01-29T07:11:48;102786.53;;;2.56;100.00
47054;BME280;32811;52.382;5.270;2023-01-29T07:14:43;102787.84;;;2.62;100.00
47054;BME280;32811;52.382;5.270;2023-01-29T07:17:14;102805.81;;;2.64;100.00
47054;BME280;32811;52.382;5.270;2023-01-29T07:19:53;102825.34;;;2.77;100.00
47054;BME280;32811;52.382;5.270;2023-01-29T07:22:40;102810.13;;;2.65;100.00
47054;BME280;32811;52.382;5.270;2023-01-29T07:25:16;102794.38;;;2.59;100.00
47054;BME280;32811;52.382;5.270;2023-01-29T07:27:47;102788.22;;;2.55;100.00
47054;BME280;32811;52.382;5.270;2023-01-29T07:30:15;102805.69;;;2.62;100.00
47054;BME280;32811;52.382;5.270;2023-01-29T07:33:03;102807.44;;;2.63;100.00
47054;BME280;32811;52.382;5.270;2023-01-29T07:35:36;102764.34;;;2.41;100.00
47054;BME280;32811;52.382;5.270;2023-01-29T07:38:10;102762.09;;;2.46;100.00
47054;BME280;32811;52.382;5.270;2023-01-29T07:41:13;102783.63;;;2.63;100.00
47054;BME280;32811;52.382;5.270;2023-01-29T07:43:48;102782.88;;;2.64;100.00
47054;BME280;32811;52.382;5.270;2023-01-29T07:46:21;102769.81;;;2.59;100.00
47054;BME280;32811;52.382;5.270;2023-01-29T07:48:51;102774.41;;;2.65;100.00
47054;BME280;32811;52.382;5.270;2023-01-29T07:51:20;102795.66;;;2.77;100.00
47054;BME280;32811;52.382;5.270;2023-01-29T07:53:52;102777.84;;;2.65;100.00
47054;BME280;32811;52.382;5.270;2023-01-29T07:56:55;102752.41;;;2.54;100.00
47054;BME280;32811;52.382;5.270;2023-01-29T07:59:30;102738.56;;;2.50;100.00
47054;BME280;32811;52.382;5.270;2023-01-29T08:02:22;102756.06;;;2.57;100.00
47054;BME280;32811;52.382;5.270;2023-01-29T08:05:04;102744.56;;;2.51;100.00
47054;BME280;32811;52.382;5.270;2023-01-29T08:08:15;102794.31;;;2.82;100.00
47054;BME280;32811;52.382;5.270;2023-01-29T08:11:07;102743.91;;;2.53;100.00
47054;BME280;32811;52.382;5.270;2023-01-29T08:13:53;102769.84;;;2.73;100.00
47054;BME280;32811;52.382;5.270;2023-01-29T08:16:30;102742.34;;;2.55;100.00
47054;BME280;32811;52.382;5.270;2023-01-29T08:19:06;102739.78;;;2.55;100.00
47054;BME280;32811;52.382;5.270;2023-01-29T08:21:56;102742.41;;;2.57;100.00
47054;BME280;32811;52.382;5.270;2023-01-29T08:24:29;102729.03;;;2.59;100.00
47054;BME280;32811;52.382;5.270;2023-01-29T08:27:23;102756.63;;;2.78;100.00
47054;BME280;32811;52.382;5.270;2023-01-29T08:29:50;102742.69;;;2.73;100.00
47054;BME280;32811;52.382;5.270;2023-01-29T08:32:27;102752.50;;;2.80;100.00
47054;BME280;32811;52.382;5.270;2023-01-29T08:34:56;102778.84;;;2.93;100.00
47054;BME280;32811;52.382;5.270;2023-01-29T08:37:26;102734.53;;;2.79;100.00
47054;BME280;32811;52.382;5.270;2023-01-29T08:39:55;102712.47;;;2.66;100.00
47054;BME280;32811;52.382;5.270;2023-01-29T08:42:25;102719.63;;;2.72;100.00
47054;BME280;32811;52.382;5.270;2023-01-29T08:44:52;102749.41;;;2.98;100.00
47054;BME280;32811;52.382;5.270;2023-01-29T08:47:21;102739.91;;;2.95;100.00
47054;BME280;32811;52.382;5.270;2023-01-29T08:50:03;102746.75;;;2.96;100.00
47054;BME280;32811;52.382;5.270;2023-01-29T08:52:30;102730.47;;;2.94;100.00
47054;BME280;32811;52.382;5.270;2023-01-29T08:54:57;102709.47;;;2.85;100.00
47054;BME280;32811;52.382;5.270;2023-01-29T08:57:24;102745.09;;;3.10;100.00
47054;BME280;32811;52.382;5.270;2023-01-29T08:59:55;102749.84;;;3.17;100.00
47054;BME280;32811;52.382;5.270;2023-01-29T09:02:25;102696.25;;;2.90;100.00
47054;BME280;32811;52.382;5.270;2023-01-29T09:05:02;102724.41;;;3.05;100.00
47054;BME280;32811;52.382;5.270;2023-01-29T09:07:29;102722.06;;;3.08;100.00
47054;BME280;32811;52.382;5.270;2023-01-29T09:10:03;102694.47;;;2.89;100.00
47054;BME280;32811;52.382;5.270;2023-01-29T09:12:33;102747.38;;;3.19;100.00
47054;BME280;32811;52.382;5.270;2023-01-29T09:15:11;102699.97;;;2.96;100.00
47054;BME280;32811;52.382;5.270;2023-01-29T09:17:38;102735.19;;;3.15;100.00
47054;BME280;32811;52.382;5.270;2023-01-29T09:20:18;102704.50;;;3.00;100.00
47054;BME280;32811;52.382;5.270;2023-01-29T09:22:54;102727.19;;;3.22;100.00
47054;BME280;32811;52.382;5.270;2023-01-29T09:25:37;102727.38;;;3.25;100.00
47054;BME280;32811;52.382;5.270;2023-01-29T09:28:11;102729.81;;;3.23;100.00
47054;BME280;32811;52.382;5.270;2023-01-29T09:30:41;102735.44;;;3.31;100.00
47054;BME280;32811;52.382;5.270;2023-01-29T09:33:08;102711.47;;;3.16;100.00
47054;BME280;32811;52.382;5.270;2023-01-29T09:35:41;102713.81;;;3.12;100.00
47054;BME280;32811;52.382;5.270;2023-01-29T09:38:09;102744.16;;;3.35;100.00
47054;BME280;32811;52.382;5.270;2023-01-29T09:43:09;102747.69;;;3.50;100.00
47054;BME280;32811;52.382;5.270;2023-01-29T09:45:48;102734.63;;;3.45;100.00
47054;BME280;32811;52.382;5.270;2023-01-29T09:48:23;102717.75;;;3.34;100.00
47054;BME280;32811;52.382;5.270;2023-01-29T09:50:55;102686.72;;;3.28;100.00
47054;BME280;32811;52.382;5.270;2023-01-29T09:53:45;102689.50;;;3.31;100.00
47054;BME280;32811;52.382;5.270;2023-01-29T09:56:21;102674.06;;;3.29;100.00
47054;BME280;32811;52.382;5.270;2023-01-29T09:58:56;102705.69;;;3.45;100.00
47054;BME280;32811;52.382;5.270;2023-01-29T10:02:08;102717.75;;;3.47;100.00
47054;BME280;32811;52.382;5.270;2023-01-29T10:07:25;102724.63;;;3.48;100.00
47054;BME280;32811;52.382;5.270;2023-01-29T10:25:52;102700.28;;;3.53;100.00
47054;BME280;32811;52.382;5.270;2023-01-29T10:31:03;102685.84;;;3.54;100.00
47054;BME280;32811;52.382;5.270;2023-01-29T10:33:37;102696.13;;;3.69;100.00
47054;BME280;32811;52.382;5.270;2023-01-29T10:36:33;102682.38;;;3.67;100.00
47054;BME280;32811;52.382;5.270;2023-01-29T10:39:02;102688.66;;;3.72;100.00
47054;BME280;32811;52.382;5.270;2023-01-29T10:44:56;102683.63;;;3.87;100.00
47054;BME280;32811;52.382;5.270;2023-01-29T10:48:04;102672.53;;;3.86;100.00
47054;BME280;32811;52.382;5.270;2023-01-29T10:50:54;102667.63;;;3.76;100.00
47054;BME280;32811;52.382;5.270;2023-01-29T10:59:00;102664.44;;;3.93;100.00
47054;BME280;32811;52.382;5.270;2023-01-29T11:01:30;102666.38;;;3.98;100.00
47054;BME280;32811;52.382;5.270;2023-01-29T11:04:00;102654.81;;;3.89;100.00
47054;BME280;32811;52.382;5.270;2023-01-29T11:06:31;102646.06;;;3.86;100.00
47054;BME280;32811;52.382;5.270;2023-01-29T11:12:24;102602.97;;;3.49;100.00
47054;BME280;32811;52.382;5.270;2023-01-29T11:15:33;102630.50;;;3.68;100.00
47054;BME280;32811;52.382;5.270;2023-01-29T11:18:08;102608.38;;;3.53;100.00
47054;BME280;32811;52.382;5.270;2023-01-29T11:21:01;102592.50;;;3.44;100.00
47054;BME280;32811;52.382;5.270;2023-01-29T11:23:40;102636.31;;;3.65;100.00
47054;BME280;32811;52.382;5.270;2023-01-29T11:26:21;102581.47;;;3.45;100.00
47054;BME280;32811;52.382;5.270;2023-01-29T11:28:59;102607.34;;;3.65;100.00
47054;BME280;32811;52.382;5.270;2023-01-29T11:31:37;102602.34;;;3.66;100.00
47054;BME280;32811;52.382;5.270;2023-01-29T11:34:24;102581.69;;;3.48;100.00
47054;BME280;32811;52.382;5.270;2023-01-29T11:37:13;102582.34;;;3.46;100.00
47054;BME280;32811;52.382;5.270;2023-01-29T11:39:57;102587.34;;;3.58;100.00
47054;BME280;32811;52.382;5.270;2023-01-29T11:42:44;102612.13;;;3.73;100.00
47054;BME280;32811;52.382;5.270;2023-01-29T11:45:30;102609.97;;;3.80;100.00
47054;BME280;32811;52.382;5.270;2023-01-29T11:48:14;102567.78;;;3.58;100.00
47054;BME280;32811;52.382;5.270;2023-01-29T11:51:00;102558.78;;;3.50;100.00
47054;BME280;32811;52.382;5.270;2023-01-29T11:53:51;102547.41;;;3.45;100.00
47054;BME280;32811;52.382;5.270;2023-01-29T11:56:46;102533.56;;;3.41;100.00
47054;BME280;32811;52.382;5.270;2023-01-29T12:02:22;102555.25;;;3.48;100.00
47054;BME280;32811;52.382;5.270;2023-01-29T12:04:55;102560.41;;;3.63;100.00
47054;BME280;32811;52.382;5.270;2023-01-29T12:07:41;102560.50;;;3.64;100.00
47054;BME280;32811;52.382;5.270;2023-01-29T12:15:47;102546.50;;;3.58;100.00
47054;BME280;32811;52.382;5.270;2023-01-29T12:18:43;102527.09;;;3.46;100.00
47054;BME280;32811;52.382;5.270;2023-01-29T12:25:18;102513.53;;;3.47;100.00
47054;BME280;32811;52.382;5.270;2023-01-29T12:28:05;102505.69;;;3.44;100.00
47054;BME280;32811;52.382;5.270;2023-01-29T12:31:11;102492.72;;;3.41;100.00
47054;BME280;32811;52.382;5.270;2023-01-29T12:36:40;102471.09;;;3.49;100.00
47054;BME280;32811;52.382;5.270;2023-01-29T12:39:36;102462.84;;;3.53;100.00
47054;BME280;32811;52.382;5.270;2023-01-29T12:44:45;102471.25;;;3.81;100.00
47054;BME280;32811;52.382;5.270;2023-01-29T12:47:44;102428.53;;;3.78;100.00
47054;BME280;32811;52.382;5.270;2023-01-29T12:56:43;102398.50;;;3.89;100.00
47054;BME280;32811;52.382;5.270;2023-01-29T13:00:43;102385.28;;;3.96;100.00
47054;BME280;32811;52.382;5.270;2023-01-29T13:06:58;102368.53;;;4.01;100.00
47054;BME280;32811;52.382;5.270;2023-01-29T14:49:57;102254.66;;;3.90;100.00
47054;BME280;32811;52.382;5.270;2023-01-29T14:52:50;102250.41;;;3.90;100.00
47054;BME280;32811;52.382;5.270;2023-01-29T14:58:32;102245.31;;;3.90;100.00
47054;BME280;32811;52.382;5.270;2023-01-29T15:05:34;102250.41;;;3.90;100.00
47054;BME280;32811;52.382;5.270;2023-01-29T15:15:35;102276.31;;;4.13;100.00
47054;BME280;32811;52.382;5.270;2023-01-29T15:22:02;102276.88;;;4.07;100.00
47054;BME280;32811;52.382;5.270;2023-01-29T15:24:39;102229.97;;;3.90;100.00
47054;BME280;32811;52.382;5.270;2023-01-29T15:27:16;102246.47;;;3.95;100.00
47054;BME280;32811;52.382;5.270;2023-01-29T15:30:05;102210.66;;;3.79;100.00
47054;BME280;32811;52.382;5.270;2023-01-29T15:32:38;102237.72;;;3.92;100.00
47054;BME280;32811;52.382;5.270;2023-01-29T15:38:15;102251.09;;;4.03;100.00
47054;BME280;32811;52.382;5.270;2023-01-29T15:40:58;102260.50;;;4.04;100.00
47054;BME280;32811;52.382;5.270;2023-01-29T15:43:30;102237.63;;;3.90;100.00
47054;BME280;32811;52.382;5.270;2023-01-29T15:46:18;102221.66;;;3.78;100.00
47054;BME280;32811;52.382;5.270;2023-01-29T15:48:54;102235.91;;;3.89;100.00
47054;BME280;32811;52.382;5.270;2023-01-29T15:51:26;102239.88;;;3.84;100.00
47054;BME280;32811;52.382;5.270;2023-01-29T15:54:04;102251.31;;;3.91;100.00
47054;BME280;32811;52.382;5.270;2023-01-29T15:56:40;102232.50;;;3.74;100.00
47054;BME280;32811;52.382;5.270;2023-01-29T15:59:16;102243.13;;;3.82;100.00
47054;BME280;32811;52.382;5.270;2023-01-29T16:01:45;102252.97;;;3.90;100.00
47054;BME280;32811;52.382;5.270;2023-01-29T16:04:17;102208.31;;;3.67;100.00
47054;BME280;32811;52.382;5.270;2023-01-29T16:06:46;102200.41;;;3.63;100.00
47054;BME280;32811;52.382;5.270;2023-01-29T16:09:18;102229.72;;;3.69;100.00
47054;BME280;32811;52.382;5.270;2023-01-29T16:11:47;102221.78;;;3.65;100.00
47054;BME280;32811;52.382;5.270;2023-01-29T16:14:20;102205.00;;;3.53;100.00
47054;BME280;32811;52.382;5.270;2023-01-29T16:16:52;102200.88;;;3.56;100.00
47054;BME280;32811;52.382;5.270;2023-01-29T16:19:23;102253.44;;;3.83;100.00
47054;BME280;32811;52.382;5.270;2023-01-29T16:21:57;102249.91;;;3.81;100.00
47054;BME280;32811;52.382;5.270;2023-01-29T16:24:26;102241.91;;;3.75;100.00
47054;BME280;32811;52.382;5.270;2023-01-29T16:27:12;102237.47;;;3.71;100.00
47054;BME280;32811;52.382;5.270;2023-01-29T16:29:40;102240.31;;;3.77;100.00
47054;BME280;32811;52.382;5.270;2023-01-29T16:32:07;102229.09;;;3.73;100.00
47054;BME280;32811;52.382;5.270;2023-01-29T16:34:42;102236.13;;;3.78;100.00
47054;BME280;32811;52.382;5.270;2023-01-29T16:37:18;102229.34;;;3.78;100.00
47054;BME280;32811;52.382;5.270;2023-01-29T16:39:48;102230.91;;;3.76;100.00
47054;BME280;32811;52.382;5.270;2023-01-29T16:44:56;102185.38;;;3.52;100.00
47054;BME280;32811;52.382;5.270;2023-01-29T16:47:32;102195.75;;;3.56;100.00
47054;BME280;32811;52.382;5.270;2023-01-29T16:50:25;102204.41;;;3.58;100.00
47054;BME280;32811;52.382;5.270;2023-01-29T16:53:17;102198.81;;;3.65;100.00
47054;BME280;32811;52.382;5.270;2023-01-29T16:55:48;102177.56;;;3.49;100.00
47054;BME280;32811;52.382;5.270;2023-01-29T16:58:19;102170.28;;;3.41;100.00
47054;BME280;32811;52.382;5.270;2023-01-29T17:00:52;102217.19;;;3.74;100.00
47054;BME280;32811;52.382;5.270;2023-01-29T17:03:23;102204.69;;;3.64;100.00
47054;BME280;32811;52.382;5.270;2023-01-29T17:05:51;102172.19;;;3.45;100.00
47054;BME280;32811;52.382;5.270;2023-01-29T17:08:22;102214.63;;;3.74;100.00
47054;BME280;32811;52.382;5.270;2023-01-29T17:10:50;102158.00;;;3.50;100.00
47054;BME280;32811;52.382;5.270;2023-01-29T17:13:38;102168.31;;;3.51;100.00
47054;BME280;32811;52.382;5.270;2023-01-29T17:16:25;102199.94;;;3.70;100.00
47054;BME280;32811;52.382;5.270;2023-01-29T17:18:53;102189.66;;;3.68;100.00
47054;BME280;32811;52.382;5.270;2023-01-29T17:21:20;102165.28;;;3.59;100.00
47054;BME280;32811;52.382;5.270;2023-01-29T17:23:50;102159.94;;;3.54;100.00
47054;BME280;32811;52.382;5.270;2023-01-29T17:26:18;102181.81;;;3.65;100.00
47054;BME280;32811;52.382;5.270;2023-01-29T17:28:48;102175.22;;;3.69;100.00
47054;BME280;32811;52.382;5.270;2023-01-29T17:31:17;102180.94;;;3.65;100.00
47054;BME280;32811;52.382;5.270;2023-01-29T17:33:45;102120.66;;;3.36;100.00
47054;BME280;32811;52.382;5.270;2023-01-29T17:36:14;102171.25;;;3.59;100.00
47054;BME280;32811;52.382;5.270;2023-01-29T17:38:45;102168.66;;;3.58;100.00
47054;BME280;32811;52.382;5.270;2023-01-29T17:41:33;102167.69;;;3.56;100.00
47054;BME280;32811;52.382;5.270;2023-01-29T17:44:00;102158.34;;;3.56;100.00
47054;BME280;32811;52.382;5.270;2023-01-29T17:46:27;102157.53;;;3.57;100.00